<?xml version="1.0" encoding="utf-8"?>
<gpx xmlns:xsi="http://www.w3.org/2001/XMLSchema-instance" xmlns:xsd="http://www.w3.org/2001/XMLSchema" version="1.1" creator="Shapelink.com" xmlns="http://www.topografix.com/GPX/1/1" xmlns:gpxtpx="http://www.garmin.com/xmlschemas/TrackPointExtension/v1">
  <metadata>
    <name>Övrigt 2.32 km, 2019-04-21</name>
    <desc></desc>
    <author><name>Marian Moron</name></author> 
    <time>2019-04-21T10:57:18Z</time>
  </metadata>
  <trk>
    <name>Övrigt 2.32 km, 2019-04-21</name>
    <trkseg>
      <trkpt lat="51.209247135193" lon="4.404672608209">
        <ele>0</ele>
        <time>2019-04-21T10:57:18Z</time>
      </trkpt>
      <trkpt lat="51.209426591672" lon="4.404651485821">
        <ele>0</ele>
        <time>2019-04-21T10:57:45Z</time>
      </trkpt>
      <trkpt lat="51.209497251089" lon="4.404452499515">
        <ele>3.2</ele>
        <time>2019-04-21T10:58:02Z</time>
      </trkpt>
      <trkpt lat="51.209586266867" lon="4.404391060188">
        <ele>7.8</ele>
        <time>2019-04-21T10:58:30Z</time>
      </trkpt>
      <trkpt lat="51.209776535997" lon="4.404727258197">
        <ele>12</ele>
        <time>2019-04-21T10:58:52Z</time>
      </trkpt>
      <trkpt lat="51.209809979778" lon="4.404940912828">
        <ele>13.8</ele>
        <time>2019-04-21T10:59:07Z</time>
      </trkpt>
      <trkpt lat="51.209944676911" lon="4.40544365919">
        <ele>16.4</ele>
        <time>2019-04-21T10:59:31Z</time>
      </trkpt>
      <trkpt lat="51.209969990249" lon="4.405498728273">
        <ele>16.6</ele>
        <time>2019-04-21T10:59:33Z</time>
      </trkpt>
      <trkpt lat="51.210149949642" lon="4.406177745992">
        <ele>19</ele>
        <time>2019-04-21T11:00:04Z</time>
      </trkpt>
      <trkpt lat="51.210510790437" lon="4.406595248431">
        <ele>16.8</ele>
        <time>2019-04-21T11:00:28Z</time>
      </trkpt>
      <trkpt lat="51.210567284443" lon="4.406700692733">
        <ele>16.2</ele>
        <time>2019-04-21T11:00:35Z</time>
      </trkpt>
      <trkpt lat="51.21089359181" lon="4.407159601758">
        <ele>16.8</ele>
        <time>2019-04-21T11:01:04Z</time>
      </trkpt>
      <trkpt lat="51.211264323247" lon="4.407575511636">
        <ele>14.2</ele>
        <time>2019-04-21T11:01:33Z</time>
      </trkpt>
      <trkpt lat="51.211611585364" lon="4.408044395122">
        <ele>12</ele>
        <time>2019-04-21T11:02:03Z</time>
      </trkpt>
      <trkpt lat="51.211978712584" lon="4.408455443498">
        <ele>6.8</ele>
        <time>2019-04-21T11:02:30Z</time>
      </trkpt>
      <trkpt lat="51.212124725282" lon="4.408701619901">
        <ele>3.6</ele>
        <time>2019-04-21T11:03:04Z</time>
      </trkpt>
      <trkpt lat="51.212294123481" lon="4.408928434115">
        <ele>3.4</ele>
        <time>2019-04-21T11:03:21Z</time>
      </trkpt>
      <trkpt lat="51.212349946935" lon="4.408978893153">
        <ele>3.4</ele>
        <time>2019-04-21T11:03:26Z</time>
      </trkpt>
      <trkpt lat="51.21269486212" lon="4.409301680122">
        <ele>3.6</ele>
        <time>2019-04-21T11:03:58Z</time>
      </trkpt>
      <trkpt lat="51.212711793558" lon="4.409290699833">
        <ele>3.2</ele>
        <time>2019-04-21T11:04:01Z</time>
      </trkpt>
      <trkpt lat="51.212726126607" lon="4.409262704287">
        <ele>3</ele>
        <time>2019-04-21T11:04:04Z</time>
      </trkpt>
      <trkpt lat="51.212897620281" lon="4.409214508362">
        <ele>3.2</ele>
        <time>2019-04-21T11:04:24Z</time>
      </trkpt>
      <trkpt lat="51.213111610188" lon="4.409205372091">
        <ele>12.8</ele>
        <time>2019-04-21T11:05:15Z</time>
      </trkpt>
      <trkpt lat="51.213348734139" lon="4.409411063917">
        <ele>8.8</ele>
        <time>2019-04-21T11:05:45Z</time>
      </trkpt>
      <trkpt lat="51.213680238284" lon="4.409230433972">
        <ele>16.2</ele>
        <time>2019-04-21T11:06:13Z</time>
      </trkpt>
      <trkpt lat="51.21370655745" lon="4.409213418715">
        <ele>17.4</ele>
        <time>2019-04-21T11:06:17Z</time>
      </trkpt>
      <trkpt lat="51.213942591754" lon="4.409072016062">
        <ele>21.4</ele>
        <time>2019-04-21T11:06:34Z</time>
      </trkpt>
      <trkpt lat="51.213973018051" lon="4.409078134849">
        <ele>20.8</ele>
        <time>2019-04-21T11:06:36Z</time>
      </trkpt>
      <trkpt lat="51.214130933047" lon="4.409254154749">
        <ele>12.6</ele>
        <time>2019-04-21T11:06:51Z</time>
      </trkpt>
      <trkpt lat="51.214202179197" lon="4.409303943235">
        <ele>8</ele>
        <time>2019-04-21T11:07:00Z</time>
      </trkpt>
      <trkpt lat="51.214203855577" lon="4.409320204121">
        <ele>5.8</ele>
        <time>2019-04-21T11:09:04Z</time>
      </trkpt>
      <trkpt lat="51.21425389552" lon="4.4094409873">
        <ele>8.4</ele>
        <time>2019-04-21T11:09:21Z</time>
      </trkpt>
      <trkpt lat="51.214412145792" lon="4.409474431081">
        <ele>9.6</ele>
        <time>2019-04-21T11:09:40Z</time>
      </trkpt>
      <trkpt lat="51.214461179907" lon="4.409356413929">
        <ele>9.6</ele>
        <time>2019-04-21T11:09:47Z</time>
      </trkpt>
      <trkpt lat="51.214504095235" lon="4.409345685097">
        <ele>9.6</ele>
        <time>2019-04-21T11:09:54Z</time>
      </trkpt>
      <trkpt lat="51.214519266474" lon="4.409395222126">
        <ele>9</ele>
        <time>2019-04-21T11:10:24Z</time>
      </trkpt>
      <trkpt lat="51.214417929303" lon="4.409444172422">
        <ele>8.4</ele>
        <time>2019-04-21T11:11:09Z</time>
      </trkpt>
      <trkpt lat="51.214396220182" lon="4.409605440178">
        <ele>8.4</ele>
        <time>2019-04-21T11:11:22Z</time>
      </trkpt>
      <trkpt lat="51.21450619071" lon="4.40954240829">
        <ele>7.2</ele>
        <time>2019-04-21T11:11:52Z</time>
      </trkpt>
      <trkpt lat="51.21453385098" lon="4.4094577511">
        <ele>6.8</ele>
        <time>2019-04-21T11:12:00Z</time>
      </trkpt>
      <trkpt lat="51.214498479362" lon="4.409409890451">
        <ele>6.6</ele>
        <time>2019-04-21T11:12:05Z</time>
      </trkpt>
      <trkpt lat="51.214470567635" lon="4.409417266523">
        <ele>6.2</ele>
        <time>2019-04-21T11:12:47Z</time>
      </trkpt>
      <trkpt lat="51.21446679578" lon="4.409421960387">
        <ele>6</ele>
        <time>2019-04-21T11:12:52Z</time>
      </trkpt>
      <trkpt lat="51.214519937026" lon="4.409464540439">
        <ele>6.6</ele>
        <time>2019-04-21T11:13:01Z</time>
      </trkpt>
      <trkpt lat="51.214526139632" lon="4.409628574222">
        <ele>7.4</ele>
        <time>2019-04-21T11:13:11Z</time>
      </trkpt>
      <trkpt lat="51.214492444394" lon="4.409769138685">
        <ele>8</ele>
        <time>2019-04-21T11:13:21Z</time>
      </trkpt>
      <trkpt lat="51.214412397249" lon="4.409768971047">
        <ele>8.2</ele>
        <time>2019-04-21T11:13:28Z</time>
      </trkpt>
      <trkpt lat="51.214397142191" lon="4.409659168157">
        <ele>8.8</ele>
        <time>2019-04-21T11:13:35Z</time>
      </trkpt>
      <trkpt lat="51.214396890734" lon="4.409520782988">
        <ele>9.4</ele>
        <time>2019-04-21T11:13:43Z</time>
      </trkpt>
      <trkpt lat="51.214414073629" lon="4.409438305092">
        <ele>9.2</ele>
        <time>2019-04-21T11:13:50Z</time>
      </trkpt>
      <trkpt lat="51.21444416465" lon="4.409424726414">
        <ele>9.4</ele>
        <time>2019-04-21T11:13:53Z</time>
      </trkpt>
      <trkpt lat="51.214508956737" lon="4.409424474957">
        <ele>9.8</ele>
        <time>2019-04-21T11:14:01Z</time>
      </trkpt>
      <trkpt lat="51.214520775216" lon="4.40940494513">
        <ele>10</ele>
        <time>2019-04-21T11:14:04Z</time>
      </trkpt>
      <trkpt lat="51.214508789099" lon="4.409385415303">
        <ele>10.2</ele>
        <time>2019-04-21T11:14:06Z</time>
      </trkpt>
      <trkpt lat="51.21446763397" lon="4.40940578332">
        <ele>10.6</ele>
        <time>2019-04-21T11:14:11Z</time>
      </trkpt>
      <trkpt lat="51.214430585972" lon="4.409405950958">
        <ele>13.6</ele>
        <time>2019-04-21T11:14:45Z</time>
      </trkpt>
      <trkpt lat="51.214458665337" lon="4.409397066144">
        <ele>13.6</ele>
        <time>2019-04-21T11:14:49Z</time>
      </trkpt>
      <trkpt lat="51.21449697062" lon="4.409457080548">
        <ele>14.2</ele>
        <time>2019-04-21T11:14:57Z</time>
      </trkpt>
      <trkpt lat="51.214507531814" lon="4.409590436577">
        <ele>14.4</ele>
        <time>2019-04-21T11:15:05Z</time>
      </trkpt>
      <trkpt lat="51.214511638945" lon="4.409640560339">
        <ele>13.4</ele>
        <time>2019-04-21T11:15:17Z</time>
      </trkpt>
      <trkpt lat="51.214507699452" lon="4.409538971711">
        <ele>13</ele>
        <time>2019-04-21T11:15:24Z</time>
      </trkpt>
      <trkpt lat="51.214463610658" lon="4.409485243732">
        <ele>12.6</ele>
        <time>2019-04-21T11:15:34Z</time>
      </trkpt>
      <trkpt lat="51.214429412506" lon="4.409482226248">
        <ele>12.6</ele>
        <time>2019-04-21T11:15:38Z</time>
      </trkpt>
      <trkpt lat="51.214373505233" lon="4.4095415701">
        <ele>12.6</ele>
        <time>2019-04-21T11:15:55Z</time>
      </trkpt>
      <trkpt lat="51.214377360907" lon="4.409459930394">
        <ele>11</ele>
        <time>2019-04-21T11:16:47Z</time>
      </trkpt>
      <trkpt lat="51.214441566261" lon="4.409400837999">
        <ele>10.4</ele>
        <time>2019-04-21T11:17:05Z</time>
      </trkpt>
      <trkpt lat="51.21443662094" lon="4.409376698127">
        <ele>11</ele>
        <time>2019-04-21T11:17:17Z</time>
      </trkpt>
      <trkpt lat="51.214458581518" lon="4.409349205495">
        <ele>10.6</ele>
        <time>2019-04-21T11:18:16Z</time>
      </trkpt>
      <trkpt lat="51.214487582892" lon="4.409448782467">
        <ele>11.4</ele>
        <time>2019-04-21T11:18:34Z</time>
      </trkpt>
      <trkpt lat="51.214463359201" lon="4.409548694715">
        <ele>12</ele>
        <time>2019-04-21T11:18:46Z</time>
      </trkpt>
      <trkpt lat="51.214501413027" lon="4.409406789148">
        <ele>12.4</ele>
        <time>2019-04-21T11:19:14Z</time>
      </trkpt>
      <trkpt lat="51.214532845152" lon="4.409400167447">
        <ele>12.6</ele>
        <time>2019-04-21T11:19:18Z</time>
      </trkpt>
      <trkpt lat="51.214535443541" lon="4.409373010091">
        <ele>12.8</ele>
        <time>2019-04-21T11:19:36Z</time>
      </trkpt>
      <trkpt lat="51.214414408905" lon="4.409461690593">
        <ele>11.4</ele>
        <time>2019-04-21T11:21:22Z</time>
      </trkpt>
      <trkpt lat="51.214446595401" lon="4.409440484386">
        <ele>9.4</ele>
        <time>2019-04-21T11:23:08Z</time>
      </trkpt>
      <trkpt lat="51.214532006962" lon="4.409425396966">
        <ele>7.8</ele>
        <time>2019-04-21T11:23:25Z</time>
      </trkpt>
      <trkpt lat="51.214504598149" lon="4.409348199667">
        <ele>7.8</ele>
        <time>2019-04-21T11:28:08Z</time>
      </trkpt>
      <trkpt lat="51.214543573984" lon="4.409389354796">
        <ele>7.4</ele>
        <time>2019-04-21T11:28:14Z</time>
      </trkpt>
      <trkpt lat="51.214563271449" lon="4.409591693862">
        <ele>6.4</ele>
        <time>2019-04-21T11:28:27Z</time>
      </trkpt>
      <trkpt lat="51.214559499594" lon="4.409788668512">
        <ele>5.8</ele>
        <time>2019-04-21T11:28:36Z</time>
      </trkpt>
      <trkpt lat="51.214510130203" lon="4.410180606156">
        <ele>1.8</ele>
        <time>2019-04-21T11:29:00Z</time>
      </trkpt>
      <trkpt lat="51.214603336931" lon="4.410269705753">
        <ele>1.8</ele>
        <time>2019-04-21T11:29:20Z</time>
      </trkpt>
      <trkpt lat="51.214655304711" lon="4.410301389335">
        <ele>2.2</ele>
        <time>2019-04-21T11:29:39Z</time>
      </trkpt>
      <trkpt lat="51.214645078793" lon="4.41021547486">
        <ele>2</ele>
        <time>2019-04-21T11:29:46Z</time>
      </trkpt>
      <trkpt lat="51.21462940464" lon="4.410181025251">
        <ele>1.4</ele>
        <time>2019-04-21T11:30:00Z</time>
      </trkpt>
      <trkpt lat="51.214526726365" lon="4.410309603597">
        <ele>0.4</ele>
        <time>2019-04-21T11:30:17Z</time>
      </trkpt>
      <trkpt lat="51.214373505233" lon="4.410055967303">
        <ele>0</ele>
        <time>2019-04-21T11:30:42Z</time>
      </trkpt>
      <trkpt lat="51.214403260978" lon="4.40989528628">
        <ele>0</ele>
        <time>2019-04-21T11:31:01Z</time>
      </trkpt>
      <trkpt lat="51.214408206299" lon="4.409728402651">
        <ele>0</ele>
        <time>2019-04-21T11:31:12Z</time>
      </trkpt>
      <trkpt lat="51.214416672018" lon="4.409529919259">
        <ele>0</ele>
        <time>2019-04-21T11:31:20Z</time>
      </trkpt>
      <trkpt lat="51.214421952615" lon="4.40947367671">
        <ele>0</ele>
        <time>2019-04-21T11:31:24Z</time>
      </trkpt>
      <trkpt lat="51.21439722601" lon="4.409440232929">
        <ele>0</ele>
        <time>2019-04-21T11:31:34Z</time>
      </trkpt>
      <trkpt lat="51.214287842215" lon="4.409419445817">
        <ele>0</ele>
        <time>2019-04-21T11:46:00Z</time>
      </trkpt>
      <trkpt lat="51.214057423784" lon="4.40936806477">
        <ele>6</ele>
        <time>2019-04-21T11:46:42Z</time>
      </trkpt>
      <trkpt lat="51.213874698364" lon="4.409165893342">
        <ele>19</ele>
        <time>2019-04-21T11:47:06Z</time>
      </trkpt>
      <trkpt lat="51.213953236767" lon="4.408733974035">
        <ele>16.6</ele>
        <time>2019-04-21T11:47:35Z</time>
      </trkpt>
      <trkpt lat="51.213970000567" lon="4.408469776547">
        <ele>17.2</ele>
        <time>2019-04-21T11:47:54Z</time>
      </trkpt>
      <trkpt lat="51.213973437146" lon="4.407759494341">
        <ele>17.8</ele>
        <time>2019-04-21T11:48:42Z</time>
      </trkpt>
      <trkpt lat="51.213807894621" lon="4.407282145136">
        <ele>16.8</ele>
        <time>2019-04-21T11:49:13Z</time>
      </trkpt>
      <trkpt lat="51.21335451765" lon="4.407275271978">
        <ele>16.8</ele>
        <time>2019-04-21T11:49:38Z</time>
      </trkpt>
      <trkpt lat="51.212982528928" lon="4.407369484534">
        <ele>22.2</ele>
        <time>2019-04-21T11:50:04Z</time>
      </trkpt>
      <trkpt lat="51.21291698247" lon="4.407375603321">
        <ele>23</ele>
        <time>2019-04-21T11:50:08Z</time>
      </trkpt>
      <trkpt lat="51.212668794411" lon="4.407485322392">
        <ele>25.4</ele>
        <time>2019-04-21T11:50:30Z</time>
      </trkpt>
      <trkpt lat="51.212366710735" lon="4.407517508888">
        <ele>25.6</ele>
        <time>2019-04-21T11:50:54Z</time>
      </trkpt>
      <trkpt lat="51.212146769679" lon="4.407460595787">
        <ele>26.8</ele>
        <time>2019-04-21T11:51:11Z</time>
      </trkpt>
      <trkpt lat="51.211734044923" lon="4.407740215971">
        <ele>12.6</ele>
        <time>2019-04-21T11:51:40Z</time>
      </trkpt>
      <trkpt lat="51.211586858759" lon="4.407789920638">
        <ele>9.8</ele>
        <time>2019-04-21T11:51:49Z</time>
      </trkpt>
      <trkpt lat="51.211392817774" lon="4.407819257288">
        <ele>11.6</ele>
        <time>2019-04-21T11:52:01Z</time>
      </trkpt>
      <trkpt lat="51.211320398158" lon="4.407848007205">
        <ele>16</ele>
        <time>2019-04-21T11:52:05Z</time>
      </trkpt>
      <trkpt lat="51.211248649094" lon="4.407850270318">
        <ele>17.2</ele>
        <time>2019-04-21T11:52:11Z</time>
      </trkpt>
      <trkpt lat="51.211048908417" lon="4.407853036345">
        <ele>32.8</ele>
        <time>2019-04-21T11:52:22Z</time>
      </trkpt>
      <trkpt lat="51.210959641182" lon="4.407882875909">
        <ele>42.4</ele>
        <time>2019-04-21T11:52:30Z</time>
      </trkpt>
      <trkpt lat="51.210910607067" lon="4.40789704132">
        <ele>47.4</ele>
        <time>2019-04-21T11:52:39Z</time>
      </trkpt>
      <trkpt lat="51.210946984513" lon="4.40780400223">
        <ele>40.8</ele>
        <time>2019-04-21T11:53:36Z</time>
      </trkpt>
      <trkpt lat="51.210867691739" lon="4.407730912062">
        <ele>35</ele>
        <time>2019-04-21T11:53:47Z</time>
      </trkpt>
      <trkpt lat="51.210657808963" lon="4.407687242363">
        <ele>25.6</ele>
        <time>2019-04-21T11:54:12Z</time>
      </trkpt>
      <trkpt lat="51.210356898753" lon="4.407412483681">
        <ele>11.8</ele>
        <time>2019-04-21T11:54:32Z</time>
      </trkpt>
      <trkpt lat="51.210325382809" lon="4.40734886506">
        <ele>10.8</ele>
        <time>2019-04-21T11:54:35Z</time>
      </trkpt>
      <trkpt lat="51.210296716711" lon="4.407276026349">
        <ele>11</ele>
        <time>2019-04-21T11:54:38Z</time>
      </trkpt>
      <trkpt lat="51.210211137512" lon="4.407133953144">
        <ele>10.2</ele>
        <time>2019-04-21T11:54:46Z</time>
      </trkpt>
      <trkpt lat="51.210022041848" lon="4.406775962195">
        <ele>13.2</ele>
        <time>2019-04-21T11:55:11Z</time>
      </trkpt>
      <trkpt lat="51.210049869756" lon="4.406585106332">
        <ele>15.4</ele>
        <time>2019-04-21T11:55:19Z</time>
      </trkpt>
      <trkpt lat="51.21004534353" lon="4.40651989515">
        <ele>16.4</ele>
        <time>2019-04-21T11:55:22Z</time>
      </trkpt>
      <trkpt lat="51.210021706572" lon="4.406360555231">
        <ele>16.4</ele>
        <time>2019-04-21T11:55:31Z</time>
      </trkpt>
      <trkpt lat="51.210017347984" lon="4.406197946371">
        <ele>19</ele>
        <time>2019-04-21T11:55:37Z</time>
      </trkpt>
      <trkpt lat="51.210015001052" lon="4.406084287807">
        <ele>19.4</ele>
        <time>2019-04-21T11:55:41Z</time>
      </trkpt>
      <trkpt lat="51.20994978987" lon="4.405994936753">
        <ele>20.4</ele>
        <time>2019-04-21T11:55:49Z</time>
      </trkpt>
      <trkpt lat="51.209924057437" lon="4.40593819129">
        <ele>21</ele>
        <time>2019-04-21T11:55:52Z</time>
      </trkpt>
      <trkpt lat="51.209863959214" lon="4.405738366794">
        <ele>22</ele>
        <time>2019-04-21T11:55:59Z</time>
      </trkpt>
      <trkpt lat="51.209773937608" lon="4.405709449239">
        <ele>18.8</ele>
        <time>2019-04-21T11:56:02Z</time>
      </trkpt>
      <trkpt lat="51.209691962626" lon="4.405535273357">
        <ele>11.4</ele>
        <time>2019-04-21T11:56:11Z</time>
      </trkpt>
      <trkpt lat="51.209654914628" lon="4.405462267008">
        <ele>9.4</ele>
        <time>2019-04-21T11:56:15Z</time>
      </trkpt>
      <trkpt lat="51.209586602143" lon="4.405149705957">
        <ele>8</ele>
        <time>2019-04-21T11:56:29Z</time>
      </trkpt>
      <trkpt lat="51.209474955235" lon="4.404749218775">
        <ele>10.4</ele>
        <time>2019-04-21T11:56:46Z</time>
      </trkpt>
      <trkpt lat="51.209412007166" lon="4.404745698377">
        <ele>8</ele>
        <time>2019-04-21T11:56:48Z</time>
      </trkpt>
      <trkpt lat="51.209248979211" lon="4.404641595179">
        <ele>13.6</ele>
        <time>2019-04-21T11:57:49Z</time>
      </trkpt>
    </trkseg>
  </trk>
</gpx>